createdAt,value
2023-05-25T00:01:24.654Z,3.10
2023-05-25T00:03:32.200Z,2.92
2023-05-25T00:05:37.745Z,3.20
2023-05-25T00:07:43.237Z,4.07
2023-05-25T00:09:48.271Z,3.58
2023-05-25T00:11:53.272Z,3.45
2023-05-25T00:13:58.274Z,3.08
2023-05-25T00:16:03.212Z,3.78
2023-05-25T00:18:10.744Z,3.17
2023-05-25T00:20:16.474Z,3.65
2023-05-25T00:22:21.415Z,3.53
2023-05-25T00:24:26.350Z,3.55
2023-05-25T00:26:31.293Z,3.50
2023-05-25T00:28:36.357Z,3.90
2023-05-25T00:30:41.466Z,3.17
2023-05-25T00:34:54.009Z,3.15
2023-05-25T00:36:58.977Z,3.47
2023-05-25T00:39:05.481Z,3.65
2023-05-25T00:41:10.488Z,3.58
2023-05-25T00:43:16.279Z,3.25
2023-05-25T00:45:21.599Z,3.53
2023-05-25T00:47:27.647Z,3.47
2023-05-25T00:49:34.639Z,3.50
2023-05-25T00:51:42.486Z,3.72
2023-05-25T00:53:47.462Z,4.07
2023-05-25T00:55:56.461Z,3.78
2023-05-25T00:58:04.668Z,4.50
2023-05-25T01:00:11.938Z,4.15
2023-05-25T01:02:17.986Z,3.83
2023-05-25T01:04:28.629Z,3.72
2023-05-25T01:06:35.222Z,3.78
2023-05-25T01:08:44.766Z,3.10
2023-05-25T01:10:52.352Z,3.78
2023-05-25T01:13:00.180Z,4.05
2023-05-25T01:15:07.346Z,4.10
2023-05-25T01:17:14.086Z,4.03
2023-05-25T01:19:19.040Z,3.55
2023-05-25T01:21:31.127Z,3.65
2023-05-25T01:23:39.703Z,3.78
2023-05-25T01:25:48.643Z,3.80
2023-05-25T01:27:57.591Z,4.00
2023-05-25T01:30:03.023Z,3.58
2023-05-25T01:32:09.292Z,3.78
2023-05-25T01:34:15.690Z,3.47
2023-05-25T01:36:21.241Z,3.95
2023-05-25T01:38:28.721Z,3.78
2023-05-25T01:40:33.685Z,3.78
2023-05-25T01:42:39.549Z,3.45
2023-05-25T01:44:44.759Z,4.00
2023-05-25T01:49:10.047Z,4.03
2023-05-25T01:51:22.499Z,4.05
2023-05-25T01:53:34.103Z,3.97
2023-05-25T01:55:42.712Z,3.30
2023-05-25T01:57:58.144Z,3.60
2023-05-25T02:00:05.729Z,3.83
2023-05-25T02:02:20.953Z,4.32
2023-05-25T02:04:26.441Z,4.70
2023-05-25T02:06:32.978Z,4.30
2023-05-25T02:08:46.862Z,4.05
2023-05-25T02:10:51.844Z,4.13
2023-05-25T02:12:56.787Z,4.18
2023-05-25T02:15:01.953Z,4.22
2023-05-25T02:17:07.767Z,4.28
2023-05-25T02:19:15.087Z,4.68
2023-05-25T02:21:20.084Z,4.22
2023-05-25T02:23:25.071Z,4.25
2023-05-25T02:25:32.578Z,5.00
2023-05-25T02:27:38.600Z,4.82
2023-05-25T02:29:45.811Z,4.50
2023-05-25T02:31:50.918Z,4.07
2023-05-25T02:33:56.114Z,4.60
2023-05-25T02:38:05.813Z,3.63
2023-05-25T02:40:12.437Z,4.30
2023-05-25T02:42:19.996Z,4.28
2023-05-25T02:44:26.315Z,3.67
2023-05-25T02:46:31.314Z,3.58
2023-05-25T02:50:41.219Z,4.47
2023-05-25T02:52:50.510Z,3.50
2023-05-25T02:57:08.675Z,3.95
2023-05-25T02:59:16.334Z,4.10
2023-05-25T03:01:21.531Z,4.05
2023-05-25T03:03:31.253Z,4.10
2023-05-25T03:07:42.273Z,4.22
2023-05-25T03:09:47.237Z,4.13
2023-05-25T03:11:52.347Z,4.00
2023-05-25T03:13:59.824Z,4.15
2023-05-25T03:16:09.973Z,4.47
2023-05-25T03:18:15.046Z,4.28
2023-05-25T03:20:21.767Z,4.05
2023-05-25T03:22:27.396Z,4.40
2023-05-25T03:24:32.349Z,4.95
2023-05-25T03:26:39.822Z,4.22
2023-05-25T03:28:45.000Z,4.00
2023-05-25T03:30:50.747Z,4.70
2023-05-25T03:32:58.864Z,4.35
2023-05-25T03:35:10.630Z,4.65
2023-05-25T03:37:16.063Z,4.80
2023-05-25T03:39:22.346Z,4.63
2023-05-25T03:41:29.699Z,4.40
2023-05-25T03:43:35.350Z,4.60
2023-05-25T03:45:42.101Z,4.80
2023-05-25T03:47:48.459Z,4.40
2023-05-25T03:49:56.180Z,4.35
2023-05-25T03:52:01.693Z,4.57
2023-05-25T03:54:07.420Z,4.80
2023-05-25T03:56:12.514Z,4.65
2023-05-25T03:58:18.694Z,4.70
2023-05-25T04:00:24.518Z,5.03
2023-05-25T04:02:29.592Z,5.57
2023-05-25T04:04:34.803Z,5.57
2023-05-25T04:08:48.134Z,4.80
2023-05-25T04:10:53.307Z,5.47
2023-05-25T04:13:00.116Z,4.28
2023-05-25T04:15:09.353Z,4.50
2023-05-25T04:17:25.678Z,4.53
2023-05-25T04:19:31.276Z,5.47
2023-05-25T04:21:36.482Z,5.00
2023-05-25T04:23:46.121Z,4.80
2023-05-25T04:25:51.463Z,4.35
2023-05-25T04:27:56.897Z,4.25
2023-05-25T04:30:24.773Z,5.03
2023-05-25T04:32:57.735Z,5.13
2023-05-25T04:35:10.846Z,5.38
2023-05-25T04:37:21.814Z,5.00
2023-05-25T04:39:29.433Z,5.07
2023-05-25T04:41:35.626Z,5.07
2023-05-25T04:43:56.866Z,6.35
2023-05-25T04:46:11.910Z,5.53
2023-05-25T04:48:16.942Z,5.05
2023-05-25T04:50:22.073Z,5.90
2023-05-25T04:52:28.833Z,4.72
2023-05-25T04:54:37.661Z,5.60
2023-05-25T04:56:42.923Z,4.90
2023-05-25T04:58:47.870Z,5.88
2023-05-25T05:00:53.131Z,5.65
2023-05-25T05:05:04.143Z,4.88
2023-05-25T05:07:09.422Z,4.75
2023-05-25T05:09:14.673Z,5.13
2023-05-25T05:11:23.794Z,5.60
2023-05-25T05:13:29.902Z,5.65
2023-05-25T05:15:35.377Z,5.47
2023-05-25T05:17:40.433Z,5.60
2023-05-25T05:19:46.456Z,5.38
2023-05-25T05:21:52.520Z,5.47
2023-05-25T05:23:59.087Z,5.07
2023-05-25T05:26:05.246Z,5.07
2023-05-25T05:28:12.914Z,5.30
2023-05-25T05:30:19.438Z,5.18
2023-05-25T05:34:32.010Z,5.40
2023-05-25T05:36:55.970Z,5.25
2023-05-25T05:39:03.643Z,5.60
2023-05-25T05:41:13.587Z,5.82
2023-05-25T05:43:22.404Z,5.30
2023-05-25T05:45:27.638Z,6.00
2023-05-25T05:47:35.377Z,6.15
2023-05-25T05:49:41.016Z,5.07
2023-05-25T05:51:46.215Z,4.78
2023-05-25T05:53:52.300Z,4.88
2023-05-25T05:55:59.516Z,5.68
2023-05-25T05:58:04.534Z,5.10
2023-05-25T06:00:16.377Z,5.38
2023-05-25T06:02:21.385Z,4.90
2023-05-25T06:04:29.337Z,5.30
2023-05-25T06:06:36.113Z,4.75
2023-05-25T06:08:41.304Z,5.13
2023-05-25T06:12:52.576Z,4.82
2023-05-25T06:14:57.777Z,4.85
2023-05-25T06:17:05.676Z,5.03
2023-05-25T06:19:11.019Z,4.85
2023-05-25T06:21:16.035Z,5.28
2023-05-25T06:23:21.030Z,6.18
2023-05-25T06:25:26.043Z,6.00
2023-05-25T06:27:31.143Z,4.60
2023-05-25T06:31:40.915Z,4.30
2023-05-25T06:35:58.374Z,4.38
2023-05-25T06:38:03.692Z,4.60
2023-05-25T06:40:10.582Z,4.35
2023-05-25T06:42:15.844Z,5.55
2023-05-25T06:44:30.434Z,4.47
2023-05-25T06:46:40.127Z,4.30
2023-05-25T06:48:49.393Z,3.95
2023-05-25T06:50:54.460Z,4.53
2023-05-25T06:53:00.526Z,3.92
2023-05-25T06:55:06.675Z,3.85
2023-05-25T06:57:11.635Z,4.28
2023-05-25T06:59:16.670Z,4.05
2023-05-25T07:01:22.105Z,4.20
2023-05-25T07:03:27.135Z,4.18
2023-05-25T07:05:34.662Z,4.82
2023-05-25T07:07:39.828Z,4.35
2023-05-25T07:11:49.488Z,5.03
2023-05-25T07:13:54.471Z,5.18
2023-05-25T07:16:01.066Z,4.60
2023-05-25T07:18:06.170Z,4.30
2023-05-25T07:22:21.797Z,3.95
2023-05-25T07:24:26.752Z,4.25
2023-05-25T07:26:32.109Z,4.45
2023-05-25T07:28:37.341Z,4.30
2023-05-25T07:32:48.338Z,3.78
2023-05-25T07:34:53.310Z,4.25
2023-05-25T07:36:58.407Z,4.20
2023-05-25T07:39:06.146Z,4.53
2023-05-25T07:41:13.629Z,3.88
2023-05-25T07:43:18.666Z,4.45
2023-05-25T07:47:28.915Z,3.92
2023-05-25T07:49:33.890Z,3.72
2023-05-25T07:51:38.886Z,4.70
2023-05-25T07:53:43.820Z,4.28
2023-05-25T07:55:51.656Z,3.83
2023-05-25T07:57:56.766Z,4.57
2023-05-25T08:00:02.181Z,4.45
2023-05-25T08:02:07.558Z,4.28
2023-05-25T08:04:13.185Z,4.50
2023-05-25T08:06:18.308Z,4.10
2023-05-25T08:10:32.513Z,3.70
2023-05-25T08:12:48.943Z,4.25
2023-05-25T08:14:55.464Z,4.40
2023-05-25T08:19:05.340Z,4.05
2023-05-25T08:21:10.280Z,3.97
2023-05-25T08:23:15.255Z,7.78
2023-05-25T08:25:20.301Z,3.97
2023-05-25T08:29:32.542Z,3.75
2023-05-25T08:31:37.743Z,4.53
2023-05-25T08:33:42.729Z,4.10
2023-05-25T08:35:50.119Z,3.75
2023-05-25T08:37:55.115Z,4.20
2023-05-25T08:42:09.981Z,3.80
2023-05-25T08:44:15.668Z,4.63
2023-05-25T08:46:33.590Z,3.90
2023-05-25T08:48:42.473Z,4.18
2023-05-25T08:50:51.937Z,3.70
2023-05-25T08:53:00.505Z,3.60
2023-05-25T08:55:07.891Z,4.15
2023-05-25T08:57:17.877Z,4.18
2023-05-25T08:59:34.951Z,4.78
2023-05-25T09:01:48.969Z,4.43
2023-05-25T09:03:55.360Z,3.78
2023-05-25T09:06:00.349Z,4.63
2023-05-25T09:08:06.862Z,4.07
2023-05-25T09:10:13.811Z,3.83
2023-05-25T09:12:20.095Z,4.20
2023-05-25T09:14:25.767Z,4.47
2023-05-25T09:16:31.891Z,4.60
2023-05-25T09:18:40.394Z,4.57
2023-05-25T09:20:47.046Z,4.13
2023-05-25T09:22:52.755Z,4.68
2023-05-25T09:24:57.705Z,3.95
2023-05-25T09:27:03.819Z,4.35
2023-05-25T09:29:08.737Z,4.40
2023-05-25T09:31:13.863Z,4.10
2023-05-25T09:35:29.173Z,4.47
2023-05-25T09:37:34.426Z,4.20
2023-05-25T09:39:39.700Z,3.55
2023-05-25T09:45:59.758Z,4.18
2023-05-25T09:50:10.979Z,4.95
2023-05-25T09:52:18.617Z,5.13
2023-05-25T09:54:25.751Z,4.38
2023-05-25T09:56:31.037Z,4.22
2023-05-25T09:58:36.147Z,4.15
2023-05-25T10:02:48.715Z,4.03
2023-05-25T10:06:59.932Z,4.55
2023-05-25T10:09:12.117Z,4.28
2023-05-25T10:11:19.141Z,4.57
2023-05-25T10:13:25.724Z,4.05
2023-05-25T10:15:31.164Z,4.20
2023-05-25T10:17:39.328Z,4.80
2023-05-25T10:19:49.464Z,3.22
2023-05-25T10:22:01.589Z,3.70
2023-05-25T10:24:16.474Z,4.57
2023-05-25T10:26:23.503Z,3.50
2023-05-25T10:28:32.539Z,4.20
2023-05-25T10:30:39.540Z,4.60
2023-05-25T10:32:47.262Z,3.95
2023-05-25T10:34:55.282Z,4.57
2023-05-25T10:37:01.421Z,3.70
2023-05-25T10:39:10.309Z,4.20
2023-05-25T10:41:16.196Z,3.45
2023-05-25T10:43:22.484Z,3.88
2023-05-25T10:45:30.969Z,4.03
2023-05-25T10:47:38.119Z,4.43
2023-05-25T10:49:55.955Z,3.53
2023-05-25T10:52:01.664Z,3.60
2023-05-25T10:54:09.588Z,3.65
2023-05-25T10:56:14.960Z,4.32
2023-05-25T10:58:22.008Z,4.47
2023-05-25T11:00:34.524Z,4.13
2023-05-25T11:02:55.148Z,3.10
2023-05-25T11:05:30.100Z,4.18
2023-05-25T11:07:35.389Z,4.13
2023-05-25T11:12:04.220Z,3.72
2023-05-25T11:14:24.095Z,4.03
2023-05-25T11:16:37.990Z,3.83
2023-05-25T11:18:46.217Z,4.05
2023-05-25T11:20:51.664Z,3.88
2023-05-25T11:22:56.721Z,3.70
2023-05-25T11:30:42.353Z,4.53
2023-05-25T11:32:54.950Z,3.60
2023-05-25T11:35:10.009Z,3.88
2023-05-25T11:37:22.313Z,3.35
2023-05-25T11:39:35.060Z,4.28
2023-05-25T11:42:25.855Z,4.75
2023-05-25T11:45:21.898Z,3.45
2023-05-25T11:47:35.921Z,4.07
2023-05-25T11:49:50.849Z,4.22
2023-05-25T11:52:02.515Z,3.53
2023-05-25T11:54:42.569Z,4.20
2023-05-25T11:56:52.940Z,4.72
2023-05-25T11:58:57.962Z,4.35
2023-05-25T12:03:39.491Z,3.80
2023-05-25T12:05:46.047Z,3.92
2023-05-25T12:07:53.128Z,3.63
2023-05-25T12:10:15.253Z,6.57
2023-05-25T12:12:31.632Z,4.95
2023-05-25T12:14:42.989Z,4.00
2023-05-25T12:16:54.260Z,4.22
2023-05-25T12:19:09.004Z,3.70
2023-05-25T12:21:29.667Z,3.35
2023-05-25T12:23:38.699Z,3.67
2023-05-25T12:25:50.717Z,3.63
2023-05-25T12:28:16.105Z,3.75
2023-05-25T12:30:35.262Z,4.25
2023-05-25T12:33:00.263Z,3.08
2023-05-25T12:35:11.421Z,3.85
2023-05-25T12:37:27.006Z,4.00
2023-05-25T12:39:43.515Z,4.15
2023-05-25T12:42:10.722Z,4.03
2023-05-25T12:44:36.527Z,4.13
2023-05-25T12:47:01.159Z,4.25
2023-05-25T12:49:22.959Z,2.88
2023-05-25T12:51:41.178Z,3.97
2023-05-25T12:53:59.019Z,4.07
2023-05-25T12:56:26.192Z,3.75
2023-05-25T12:59:01.686Z,4.00
2023-05-25T13:01:10.070Z,3.92
2023-05-25T13:03:17.908Z,4.25
2023-05-25T13:05:48.063Z,3.58
2023-05-25T13:08:03.184Z,4.38
2023-05-25T13:10:18.078Z,3.90
2023-05-25T13:12:26.759Z,3.33
2023-05-25T13:14:38.433Z,3.70
2023-05-25T13:17:07.052Z,3.25
2023-05-25T13:19:14.730Z,3.00
2023-05-25T13:21:22.248Z,3.72
2023-05-25T13:25:34.634Z,3.10
2023-05-25T13:29:46.892Z,3.80
2023-05-25T13:31:51.966Z,3.30
2023-05-25T13:34:07.404Z,3.95
2023-05-25T13:36:12.375Z,3.85
2023-05-25T13:40:28.741Z,3.92
2023-05-25T13:42:48.787Z,3.10
2023-05-25T13:44:53.903Z,3.40
2023-05-25T13:49:07.146Z,3.45
2023-05-25T13:51:12.188Z,3.58
2023-05-25T13:53:17.158Z,4.22
2023-05-25T13:55:23.133Z,3.55
2023-05-25T13:57:33.622Z,4.10
2023-05-25T13:59:38.552Z,3.53
2023-05-25T14:03:51.387Z,3.60
2023-05-25T14:05:57.000Z,3.80
2023-05-25T14:08:07.556Z,3.70
2023-05-25T14:10:18.035Z,4.13
2023-05-25T14:12:25.250Z,3.67
2023-05-25T14:14:33.870Z,4.20
2023-05-25T14:16:39.313Z,3.58
2023-05-25T14:18:44.275Z,3.60
2023-05-25T14:20:49.722Z,4.18
2023-05-25T14:22:54.773Z,3.45
2023-05-25T14:24:59.920Z,3.67
2023-05-25T14:27:05.141Z,3.50
2023-05-25T14:29:13.066Z,3.75
2023-05-25T14:31:20.745Z,3.42
2023-05-25T14:33:26.043Z,3.50
2023-05-25T14:37:37.537Z,3.83
2023-05-25T14:39:42.578Z,3.47
2023-05-25T14:43:55.869Z,3.58
2023-05-25T14:46:05.081Z,3.38
2023-05-25T14:48:16.516Z,3.60
2023-05-25T14:50:22.248Z,3.55
2023-05-25T14:52:27.156Z,3.78
2023-05-25T14:54:32.235Z,3.53
2023-05-25T14:56:37.576Z,3.88
2023-05-25T14:58:42.626Z,2.72
2023-05-25T15:00:47.603Z,3.05
2023-05-25T15:02:53.059Z,3.40
2023-05-25T15:05:00.744Z,3.75
2023-05-25T15:07:05.742Z,3.60
2023-05-25T15:09:10.770Z,3.45
2023-05-25T15:11:15.803Z,3.08
2023-05-25T15:13:22.815Z,3.28
2023-05-25T15:15:30.710Z,3.05
2023-05-25T15:17:35.699Z,3.63
2023-05-25T15:19:40.741Z,3.80
2023-05-25T15:21:48.362Z,3.95
2023-05-25T15:23:53.398Z,3.13
2023-05-25T15:26:04.410Z,3.90
2023-05-25T15:28:09.615Z,3.50
2023-05-25T15:30:22.941Z,3.50
2023-05-25T15:32:30.753Z,3.42
2023-05-25T15:34:36.856Z,3.17
2023-05-25T15:36:44.821Z,3.30
2023-05-25T15:38:52.365Z,3.30
2023-05-25T15:40:59.670Z,3.38
2023-05-25T15:43:04.748Z,3.45
2023-05-25T15:45:11.018Z,3.45
2023-05-25T15:47:16.046Z,3.58
2023-05-25T15:49:21.125Z,2.90
2023-05-25T15:51:26.217Z,3.60
2023-05-25T15:53:31.204Z,3.40
2023-05-25T15:55:38.835Z,3.55
2023-05-25T15:57:43.891Z,3.33
2023-05-25T15:59:48.821Z,3.17
2023-05-25T16:01:53.888Z,3.53
2023-05-25T16:03:59.352Z,3.40
2023-05-25T16:06:05.020Z,3.05
2023-05-25T16:08:11.821Z,3.20
2023-05-25T16:10:26.786Z,2.95
2023-05-25T16:12:36.487Z,2.83
2023-05-25T16:14:41.463Z,3.40
2023-05-25T16:16:46.466Z,2.95
2023-05-25T16:18:51.912Z,3.20
2023-05-25T16:21:07.567Z,3.45
2023-05-25T16:23:12.542Z,3.55
2023-05-25T16:25:25.069Z,3.75
2023-05-25T16:27:30.227Z,3.72
2023-05-25T16:29:39.961Z,5.88
2023-05-25T16:31:45.032Z,4.03
2023-05-25T16:33:50.109Z,3.72
2023-05-25T16:38:08.253Z,3.97
2023-05-25T16:40:14.069Z,3.20
2023-05-25T16:42:20.224Z,3.38
2023-05-25T16:44:25.241Z,4.05
2023-05-25T16:48:38.071Z,4.20
2023-05-25T16:50:43.144Z,3.55
2023-05-25T16:54:52.861Z,3.70
2023-05-25T16:59:05.494Z,3.28
2023-05-25T17:03:19.422Z,4.22
2023-05-25T17:05:37.595Z,3.92
2023-05-25T17:07:42.909Z,3.75
2023-05-25T17:09:47.866Z,3.85
2023-05-25T17:11:53.919Z,3.80
2023-05-25T17:13:59.037Z,4.75
2023-05-25T17:16:04.028Z,3.85
2023-05-25T17:20:17.259Z,3.60
2023-05-25T17:22:23.447Z,4.07
2023-05-25T17:24:28.378Z,4.68
2023-05-25T17:28:41.564Z,4.30
2023-05-25T17:30:48.558Z,4.25
2023-05-25T17:32:54.082Z,3.58
2023-05-25T17:35:05.068Z,3.92
2023-05-25T17:37:12.586Z,3.60
2023-05-25T17:41:27.849Z,4.22
2023-05-25T17:43:59.015Z,3.65
2023-05-25T17:46:07.770Z,4.43
2023-05-25T17:48:12.867Z,4.80
2023-05-25T17:52:31.693Z,4.07
2023-05-25T17:54:37.833Z,4.45
2023-05-25T17:56:42.744Z,3.95
2023-05-25T18:00:53.324Z,4.05
2023-05-25T18:02:58.829Z,3.80
2023-05-25T18:05:03.866Z,4.35
2023-05-25T18:07:08.954Z,4.32
2023-05-25T18:11:26.639Z,5.07
2023-05-25T18:13:32.000Z,4.07
2023-05-25T18:15:41.564Z,4.38
2023-05-25T18:18:01.020Z,4.72
2023-05-25T18:20:06.149Z,4.82
2023-05-25T18:24:22.484Z,4.40
2023-05-25T18:26:29.534Z,4.53
2023-05-25T18:28:43.975Z,5.20
2023-05-25T18:30:49.082Z,4.82
2023-05-25T18:34:58.954Z,5.10
2023-05-25T18:39:08.814Z,5.32
2023-05-25T18:41:16.898Z,5.63
2023-05-25T18:43:23.290Z,5.38
2023-05-25T18:45:28.915Z,5.57
2023-05-25T18:47:34.099Z,5.65
2023-05-25T18:49:39.195Z,4.55
2023-05-25T18:53:48.835Z,5.30
2023-05-25T18:58:01.608Z,5.45
2023-05-25T19:00:08.910Z,5.28
2023-05-25T19:02:13.996Z,4.97
2023-05-25T19:06:23.915Z,4.60
2023-05-25T19:08:28.893Z,5.45
2023-05-25T19:10:33.890Z,5.05
2023-05-25T19:12:38.832Z,4.72
2023-05-25T19:16:51.240Z,4.82
2023-05-25T19:18:56.348Z,5.22
2023-05-25T19:21:02.506Z,5.32
2023-05-25T19:23:07.520Z,4.90
2023-05-25T19:25:12.512Z,5.45
2023-05-25T19:27:20.072Z,5.38
2023-05-25T19:29:25.045Z,5.15
2023-05-25T19:31:32.617Z,5.30
2023-05-25T19:33:37.621Z,5.03
2023-05-25T19:35:42.818Z,5.40
2023-05-25T19:37:47.854Z,4.32
2023-05-25T19:41:58.292Z,5.47
2023-05-25T19:44:03.364Z,5.50
2023-05-25T19:46:08.507Z,5.13
2023-05-25T19:50:21.033Z,5.82
2023-05-25T19:54:31.107Z,5.18
2023-05-25T19:56:36.206Z,5.95
2023-05-25T20:00:46.082Z,5.85
2023-05-25T20:02:51.134Z,5.55
2023-05-25T20:07:04.870Z,5.60
2023-05-25T20:11:17.835Z,5.75
2023-05-25T20:13:22.850Z,5.43
2023-05-25T20:15:29.465Z,5.53
2023-05-25T20:17:34.562Z,4.63
2023-05-25T20:21:46.893Z,5.60
2023-05-25T20:23:53.537Z,5.32
2023-05-25T20:26:00.038Z,5.30
2023-05-25T20:28:04.992Z,5.30
2023-05-25T20:30:12.020Z,5.80
2023-05-25T20:32:18.085Z,5.35
2023-05-25T20:34:24.264Z,6.07
2023-05-25T20:36:29.259Z,5.80
2023-05-25T20:38:36.872Z,5.15
2023-05-25T20:40:41.856Z,5.32
2023-05-25T20:42:46.829Z,6.22
2023-05-25T20:44:51.805Z,5.85
2023-05-25T20:46:56.915Z,5.78
2023-05-25T20:49:03.470Z,5.95
2023-05-25T20:51:08.552Z,6.00
2023-05-25T20:53:13.665Z,5.80
2023-05-25T20:55:21.459Z,6.35
2023-05-25T20:57:26.370Z,6.07
2023-05-25T20:59:32.046Z,5.68
2023-05-25T21:01:37.059Z,5.82
2023-05-25T21:03:42.296Z,5.70
2023-05-25T21:05:47.815Z,6.18
2023-05-25T21:07:53.661Z,5.75
2023-05-25T21:09:59.625Z,6.50
2023-05-25T21:12:07.807Z,6.00
2023-05-25T21:14:12.939Z,6.00
2023-05-25T21:18:22.704Z,6.10
2023-05-25T21:20:29.303Z,6.13
2023-05-25T21:22:34.414Z,6.22
2023-05-25T21:24:39.339Z,6.07
2023-05-25T21:26:44.233Z,6.75
2023-05-25T21:28:51.909Z,6.15
2023-05-25T21:30:56.893Z,6.15
2023-05-25T21:35:07.874Z,6.07
2023-05-25T21:39:20.302Z,5.88
2023-05-25T21:45:39.112Z,6.22
2023-05-25T21:47:44.286Z,5.55
2023-05-25T21:49:49.325Z,6.38
2023-05-25T21:51:57.551Z,5.80
2023-05-25T21:54:03.255Z,6.00
2023-05-25T21:56:08.209Z,5.90
2023-05-25T21:58:13.224Z,6.15
2023-05-25T22:00:19.622Z,5.90
2023-05-25T22:02:27.228Z,5.70
2023-05-25T22:04:32.211Z,5.68
2023-05-25T22:06:37.183Z,6.25
2023-05-25T22:08:42.048Z,6.38
2023-05-25T22:10:47.161Z,5.47
2023-05-25T22:12:53.195Z,5.95
2023-05-25T22:14:58.207Z,5.78
2023-05-25T22:17:03.310Z,4.93
2023-05-25T22:21:17.005Z,5.53
2023-05-25T22:23:21.944Z,5.72
2023-05-25T22:25:27.648Z,5.85
2023-05-25T22:27:32.666Z,5.68
2023-05-25T22:29:38.220Z,6.00
2023-05-25T22:31:43.300Z,5.72
2023-05-25T22:33:48.224Z,6.35
2023-05-25T22:35:55.917Z,6.18
2023-05-25T22:38:00.923Z,5.65
2023-05-25T22:40:06.033Z,5.85
2023-05-25T22:42:11.529Z,5.28
2023-05-25T22:44:16.468Z,6.55
2023-05-25T22:46:25.567Z,5.47
2023-05-25T22:48:30.747Z,5.80
2023-05-25T22:50:35.726Z,5.65
2023-05-25T22:52:43.528Z,5.78
2023-05-25T22:54:48.464Z,5.20
2023-05-25T22:56:53.454Z,4.88
2023-05-25T22:58:58.895Z,5.43
2023-05-25T23:01:03.916Z,5.97
2023-05-25T23:03:08.920Z,5.38
2023-05-25T23:05:14.010Z,5.55
2023-05-25T23:09:26.396Z,4.75
2023-05-25T23:11:33.501Z,4.78
2023-05-25T23:13:38.554Z,5.15
2023-05-25T23:15:44.551Z,4.90
2023-05-25T23:17:49.855Z,5.07
2023-05-25T23:22:00.785Z,5.30
2023-05-25T23:24:05.754Z,5.53
2023-05-25T23:26:13.336Z,5.43
2023-05-25T23:28:18.228Z,6.50
2023-05-25T23:30:23.685Z,5.10
2023-05-25T23:32:28.699Z,4.95
2023-05-25T23:36:40.849Z,5.70
2023-05-25T23:38:45.977Z,5.72
2023-05-25T23:42:58.829Z,6.25
2023-05-25T23:45:03.756Z,5.78
2023-05-25T23:47:09.275Z,5.75
2023-05-25T23:49:14.191Z,5.22
2023-05-25T23:51:19.400Z,5.78
2023-05-25T23:53:24.888Z,5.45
2023-05-25T23:55:30.047Z,5.50
2023-05-25T23:57:36.043Z,5.32
2023-05-25T23:59:46.006Z,4.93
